Terminal Aerodrome Forecast
Issued by NWS

Home | Current Version | Previous Version | Graphics & Text | Print | Product List | Glossary On
Versions: 1 2 3 4 5 6 7 8 9 10 11 12 13 14 15 16 17 18 19 20 21 22 23 24 25 26 27 28 29 30 31
000
FTUS45 KGGW 252216 AAA
TAFGDV
TAF AMD
KGDV 252216Z 2522/2618 04008KT 2SM -RASN OVC008
     FM260000 04007KT 5SM -RASN OVC010
     FM260600 35006KT 4SM -SN OVC005
     FM261500 05007KT P6SM VCSH OVC010
      AMD LTD TO CLD VIS AND WIND=

USA.gov is the U.S. government's official web portal to all federal, state and local government web resources and services.